ISR564 LGAV-LLBG
Flight info
| Callsign | ISR564 |
|---|---|
| Flight time | N/A |
| Altitude | 37000 |
| Route | KEA N132 TUXEM UT514 PEXAN UM601 MADEX UN132 KUPIS UN134 VANZA DCT PIKOG L609 ZUKKO |
| Aircraft | A320/M-SDE2FGIJ1LORVWY/SB1 |
Departure
| Time | 2026-05-05 11:08 |
|---|---|
| Airport | Athens Eleftherios Venizelos International Airport (LGAV) |
Arrival
| Time | N/A |
|---|---|
| Airport | Ben Gurion International Airport (LLBG) |
| Time | Latitude | Longitude | Altitude | Speed | Heading |
|---|---|---|---|---|---|
| 2026-05-05 10:35 | 37.92804 | 23.94048 | 301 ft | 0 kts | 36° |
| 2026-05-05 10:40 | 37.92804 | 23.94047 | 301 ft | 0 kts | 36° |
| 2026-05-05 10:58 | 37.92803 | 23.94047 | 301 ft | 0 kts | 36° |
| 2026-05-05 11:00 | 37.92789 | 23.94033 | 301 ft | 4 kts | 40° |
| 2026-05-05 11:00 | 37.92772 | 23.94016 | 301 ft | 3 kts | 38° |
| 2026-05-05 11:01 | 37.92754 | 23.93993 | 301 ft | 4 kts | 72° |
| 2026-05-05 11:01 | 37.92754 | 23.93962 | 303 ft | 3 kts | 123° |
| 2026-05-05 11:01 | 37.92757 | 23.93957 | 301 ft | 0 kts | 127° |
| 2026-05-05 11:05 | 37.92744 | 23.93979 | 301 ft | 6 kts | 127° |
| 2026-05-05 11:06 | 37.92707 | 23.94039 | 303 ft | 12 kts | 128° |
| 2026-05-05 11:06 | 37.92649 | 23.94135 | 302 ft | 15 kts | 127° |
| 2026-05-05 11:06 | 37.92580 | 23.94252 | 303 ft | 18 kts | 127° |
| 2026-05-05 11:06 | 37.92506 | 23.94376 | 307 ft | 15 kts | 127° |
| 2026-05-05 11:07 | 37.92523 | 23.94488 | 309 ft | 17 kts | 40° |
| 2026-05-05 11:07 | 37.92671 | 23.94631 | 304 ft | 46 kts | 37° |
| 2026-05-05 11:07 | 37.93119 | 23.95056 | 295 ft | 111 kts | 37° |
| 2026-05-05 11:07 | 37.93864 | 23.95763 | 280 ft | 158 kts | 37° |
| 2026-05-05 11:08 | 37.94818 | 23.96676 | 549 ft | 176 kts | 39° |
| 2026-05-05 11:08 | 37.95792 | 23.97626 | 1128 ft | 180 kts | 40° |
| 2026-05-05 11:08 | 37.96782 | 23.98591 | 1822 ft | 179 kts | 39° |
| 2026-05-05 11:08 | 37.97803 | 23.99566 | 2322 ft | 193 kts | 38° |
| 2026-05-05 11:09 | 37.98560 | 24.00287 | 2554 ft | 210 kts | 38° |
| 2026-05-05 11:10 | 37.98759 | 24.00477 | 2608 ft | 214 kts | 38° |
| 2026-05-05 11:10 | 37.98977 | 24.00674 | 2728 ft | 205 kts | 33° |
| 2026-05-05 11:11 | 37.99881 | 24.01407 | 3293 ft | 222 kts | 35° |
| 2026-05-05 11:11 | 38.01188 | 24.02622 | 4114 ft | 240 kts | 35° |
| 2026-05-05 11:11 | 38.02523 | 24.03943 | 5205 ft | 248 kts | 37° |
| 2026-05-05 11:11 | 38.03694 | 24.05632 | 6083 ft | 264 kts | 62° |
| 2026-05-05 11:12 | 38.04125 | 24.07921 | 7109 ft | 275 kts | 88° |
| 2026-05-05 11:12 | 38.03671 | 24.10305 | 8132 ft | 287 kts | 114° |
| 2026-05-05 11:12 | 38.02642 | 24.12509 | 9148 ft | 294 kts | 119° |
| 2026-05-05 11:12 | 38.01507 | 24.14698 | 10115 ft | 300 kts | 120° |
| 2026-05-05 11:13 | 38.00314 | 24.16984 | 10712 ft | 323 kts | 121° |
| 2026-05-05 11:13 | 37.99047 | 24.19452 | 11267 ft | 342 kts | 120° |
| 2026-05-05 11:13 | 37.97742 | 24.22023 | 12146 ft | 350 kts | 120° |
| 2026-05-05 11:13 | 37.96424 | 24.24642 | 13097 ft | 355 kts | 120° |
| 2026-05-05 11:14 | 37.95089 | 24.27308 | 14012 ft | 362 kts | 120° |
| 2026-05-05 11:14 | 37.93730 | 24.30032 | 14897 ft | 369 kts | 120° |
| 2026-05-05 11:14 | 37.92352 | 24.32808 | 15755 ft | 375 kts | 120° |
| 2026-05-05 11:14 | 37.90954 | 24.35632 | 16420 ft | 381 kts | 120° |
| 2026-05-05 11:15 | 37.89541 | 24.38494 | 16942 ft | 386 kts | 120° |
| 2026-05-05 11:15 | 37.88034 | 24.41324 | 17474 ft | 391 kts | 129° |
| 2026-05-05 11:15 | 37.86175 | 24.43865 | 17988 ft | 395 kts | 129° |
| 2026-05-05 11:15 | 37.84589 | 24.46718 | 18512 ft | 399 kts | 124° |
| 2026-05-05 11:16 | 37.82853 | 24.49474 | 19054 ft | 403 kts | 131° |